sensor_id;sensor_type;location;lat;lon;timestamp;pressure;altitude;pressure_sealevel;temperature;humidity
42297;BME280;28985;47.456;19.016;2022-12-01T00:01:07;101050.97;;;3.06;73.37
42297;BME280;28985;47.456;19.016;2022-12-01T00:03:34;101053.16;;;2.98;73.56
42297;BME280;28985;47.456;19.016;2022-12-01T00:06:03;101057.03;;;2.91;74.14
42297;BME280;28985;47.456;19.016;2022-12-01T00:08:30;101060.69;;;2.88;74.36
42297;BME280;28985;47.456;19.016;2022-12-01T00:11:05;101055.66;;;2.82;73.77
42297;BME280;28985;47.456;19.016;2022-12-01T00:13:32;101060.44;;;2.74;73.41
42297;BME280;28985;47.456;19.016;2022-12-01T00:16:10;101057.59;;;2.78;73.30
42297;BME280;28985;47.456;19.016;2022-12-01T00:18:37;101061.25;;;2.76;72.96
42297;BME280;28985;47.456;19.016;2022-12-01T00:21:04;101065.78;;;2.74;72.84
42297;BME280;28985;47.456;19.016;2022-12-01T00:23:30;101062.53;;;2.67;73.17
42297;BME280;28985;47.456;19.016;2022-12-01T00:26:04;101054.56;;;2.67;72.96
42297;BME280;28985;47.456;19.016;2022-12-01T00:28:30;101067.13;;;2.63;72.78
42297;BME280;28985;47.456;19.016;2022-12-01T00:30:57;101070.97;;;2.56;72.28
42297;BME280;28985;47.456;19.016;2022-12-01T00:33:24;101071.13;;;2.53;72.65
42297;BME280;28985;47.456;19.016;2022-12-01T00:35:57;101066.16;;;2.45;73.06
42297;BME280;28985;47.456;19.016;2022-12-01T00:38:24;101077.84;;;2.41;73.42
42297;BME280;28985;47.456;19.016;2022-12-01T00:40:51;101081.84;;;2.31;74.61
42297;BME280;28985;47.456;19.016;2022-12-01T00:43:17;101083.75;;;2.27;74.77
42297;BME280;28985;47.456;19.016;2022-12-01T00:45:44;101082.03;;;2.26;74.21
42297;BME280;28985;47.456;19.016;2022-12-01T00:48:10;101084.16;;;2.18;74.45
42297;BME280;28985;47.456;19.016;2022-12-01T00:50:37;101089.69;;;2.13;75.00
42297;BME280;28985;47.456;19.016;2022-12-01T00:53:03;101088.19;;;2.06;74.86
42297;BME280;28985;47.456;19.016;2022-12-01T00:55:30;101089.28;;;2.01;74.79
42297;BME280;28985;47.456;19.016;2022-12-01T00:57:57;101092.97;;;1.97;74.86
42297;BME280;28985;47.456;19.016;2022-12-01T01:00:24;101086.06;;;1.93;76.01
42297;BME280;28985;47.456;19.016;2022-12-01T01:02:51;101084.44;;;1.89;75.93
42297;BME280;28985;47.456;19.016;2022-12-01T01:05:17;101083.53;;;1.90;75.54
42297;BME280;28985;47.456;19.016;2022-12-01T01:07:44;101085.47;;;1.86;75.54
42297;BME280;28985;47.456;19.016;2022-12-01T01:10:11;101075.16;;;1.79;76.32
42297;BME280;28985;47.456;19.016;2022-12-01T01:12:37;101087.69;;;1.75;76.43
42297;BME280;28985;47.456;19.016;2022-12-01T01:15:05;101077.13;;;1.73;76.16
42297;BME280;28985;47.456;19.016;2022-12-01T01:17:33;101085.28;;;1.69;76.78
42297;BME280;28985;47.456;19.016;2022-12-01T01:19:59;101084.66;;;1.62;76.46
42297;BME280;28985;47.456;19.016;2022-12-01T01:22:26;101070.47;;;1.63;76.16
42297;BME280;28985;47.456;19.016;2022-12-01T01:24:52;101083.94;;;1.58;76.40
42297;BME280;28985;47.456;19.016;2022-12-01T01:27:19;101071.69;;;1.54;76.55
42297;BME280;28985;47.456;19.016;2022-12-01T01:29:45;101077.94;;;1.53;76.77
42297;BME280;28985;47.456;19.016;2022-12-01T01:32:13;101073.88;;;1.44;77.39
42297;BME280;28985;47.456;19.016;2022-12-01T01:34:39;101080.16;;;1.42;76.67
42297;BME280;28985;47.456;19.016;2022-12-01T01:37:06;101081.03;;;1.42;76.38
42297;BME280;28985;47.456;19.016;2022-12-01T01:39:32;101074.91;;;1.40;77.44
42297;BME280;28985;47.456;19.016;2022-12-01T01:41:59;101079.22;;;1.43;76.92
42297;BME280;28985;47.456;19.016;2022-12-01T01:44:46;101074.81;;;1.43;76.90
42297;BME280;28985;47.456;19.016;2022-12-01T01:47:24;101072.44;;;1.36;76.84
42297;BME280;28985;47.456;19.016;2022-12-01T01:49:53;101074.47;;;1.29;77.37
42297;BME280;28985;47.456;19.016;2022-12-01T01:52:21;101071.22;;;1.22;77.61
42297;BME280;28985;47.456;19.016;2022-12-01T01:54:51;101070.56;;;1.15;78.24
42297;BME280;28985;47.456;19.016;2022-12-01T01:57:24;101068.94;;;1.11;77.86
42297;BME280;28985;47.456;19.016;2022-12-01T01:59:56;101076.16;;;1.07;78.09
42297;BME280;28985;47.456;19.016;2022-12-01T02:02:24;101071.78;;;1.06;78.19
42297;BME280;28985;47.456;19.016;2022-12-01T02:04:55;101070.91;;;1.06;77.66
42297;BME280;28985;47.456;19.016;2022-12-01T02:07:23;101071.97;;;1.02;78.71
42297;BME280;28985;47.456;19.016;2022-12-01T02:09:51;101071.97;;;1.02;78.30
42297;BME280;28985;47.456;19.016;2022-12-01T02:12:42;101061.25;;;1.05;78.62
42297;BME280;28985;47.456;19.016;2022-12-01T02:15:20;101066.44;;;1.08;78.30
42297;BME280;28985;47.456;19.016;2022-12-01T02:32:48;101066.81;;;0.73;78.95
42297;BME280;28985;47.456;19.016;2022-12-01T02:35:23;101073.94;;;0.73;77.96
42297;BME280;28985;47.456;19.016;2022-12-01T02:40:43;101064.72;;;0.59;79.65
42297;BME280;28985;47.456;19.016;2022-12-01T02:44:18;101066.66;;;0.54;80.83
42297;BME280;28985;47.456;19.016;2022-12-01T02:46:25;101063.31;;;0.49;81.89
42297;BME280;28985;47.456;19.016;2022-12-01T02:48:57;101065.53;;;0.36;81.57
42297;BME280;28985;47.456;19.016;2022-12-01T02:51:30;101069.38;;;0.27;82.08
42297;BME280;28985;47.456;19.016;2022-12-01T02:53:58;101061.94;;;0.11;82.24
42297;BME280;28985;47.456;19.016;2022-12-01T02:56:26;101058.03;;;-0.04;82.36
42297;BME280;28985;47.456;19.016;2022-12-01T02:58:53;101057.53;;;-0.15;83.27
42297;BME280;28985;47.456;19.016;2022-12-01T03:04:37;101068.31;;;-0.21;82.88
42297;BME280;28985;47.456;19.016;2022-12-01T03:09:45;101064.69;;;-0.44;84.16
42297;BME280;28985;47.456;19.016;2022-12-01T03:12:38;101061.31;;;-0.49;84.68
42297;BME280;28985;47.456;19.016;2022-12-01T03:20:54;101065.94;;;-0.56;86.01
42297;BME280;28985;47.456;19.016;2022-12-01T03:23:26;101063.44;;;-0.61;85.94
42297;BME280;28985;47.456;19.016;2022-12-01T03:25:56;101063.44;;;-0.61;85.77
42297;BME280;28985;47.456;19.016;2022-12-01T03:28:35;101062.50;;;-0.60;85.50
42297;BME280;28985;47.456;19.016;2022-12-01T03:31:06;101052.84;;;-0.61;85.21
42297;BME280;28985;47.456;19.016;2022-12-01T03:33:42;101052.97;;;-0.65;85.46
42297;BME280;28985;47.456;19.016;2022-12-01T03:36:17;101055.06;;;-0.75;86.37
42297;BME280;28985;47.456;19.016;2022-12-01T03:38:48;101047.31;;;-0.82;87.17
42297;BME280;28985;47.456;19.016;2022-12-01T03:41:22;101049.19;;;-0.85;86.32
42297;BME280;28985;47.456;19.016;2022-12-01T03:43:54;101049.22;;;-0.87;87.42
42297;BME280;28985;47.456;19.016;2022-12-01T03:46:34;101042.13;;;-0.85;86.45
42297;BME280;28985;47.456;19.016;2022-12-01T03:49:07;101047.50;;;-0.88;88.35
42297;BME280;28985;47.456;19.016;2022-12-01T03:51:43;101046.50;;;-0.84;86.96
42297;BME280;28985;47.456;19.016;2022-12-01T03:57:03;101048.28;;;-0.84;86.85
42297;BME280;28985;47.456;19.016;2022-12-01T03:59:31;101046.41;;;-0.81;86.69
42297;BME280;28985;47.456;19.016;2022-12-01T04:02:01;101049.41;;;-0.93;88.38
42297;BME280;28985;47.456;19.016;2022-12-01T04:04:27;101053.78;;;-0.92;86.85
42297;BME280;28985;47.456;19.016;2022-12-01T04:06:54;101043.41;;;-0.98;88.30
42297;BME280;28985;47.456;19.016;2022-12-01T04:09:21;101038.22;;;-1.01;88.15
42297;BME280;28985;47.456;19.016;2022-12-01T04:11:47;101032.22;;;-1.06;88.72
42297;BME280;28985;47.456;19.016;2022-12-01T04:14:32;101028.63;;;-1.04;89.10
42297;BME280;28985;47.456;19.016;2022-12-01T04:16:58;101021.38;;;-0.97;87.57
42297;BME280;28985;47.456;19.016;2022-12-01T04:19:25;101028.22;;;-0.91;87.88
42297;BME280;28985;47.456;19.016;2022-12-01T04:21:51;101019.31;;;-0.87;86.69
42297;BME280;28985;47.456;19.016;2022-12-01T04:24:18;101025.44;;;-0.87;86.55
42297;BME280;28985;47.456;19.016;2022-12-01T04:26:45;101026.56;;;-0.94;89.55
42297;BME280;28985;47.456;19.016;2022-12-01T04:29:12;101030.25;;;-1.00;88.97
42297;BME280;28985;47.456;19.016;2022-12-01T04:31:39;101030.31;;;-1.01;88.62
42297;BME280;28985;47.456;19.016;2022-12-01T04:34:06;101042.81;;;-1.08;89.21
42297;BME280;28985;47.456;19.016;2022-12-01T04:36:33;101054.63;;;-1.20;90.33
42297;BME280;28985;47.456;19.016;2022-12-01T04:39:00;101060.03;;;-1.25;89.80
42297;BME280;28985;47.456;19.016;2022-12-01T04:41:27;101066.41;;;-1.32;90.60
42297;BME280;28985;47.456;19.016;2022-12-01T04:43:54;101066.44;;;-1.33;90.61
42297;BME280;28985;47.456;19.016;2022-12-01T04:46:22;101066.41;;;-1.32;90.49
42297;BME280;28985;47.456;19.016;2022-12-01T04:48:49;101059.19;;;-1.25;89.15
42297;BME280;28985;47.456;19.016;2022-12-01T04:51:16;101055.47;;;-1.19;88.32
42297;BME280;28985;47.456;19.016;2022-12-01T04:53:43;101062.34;;;-1.12;88.92
42297;BME280;28985;47.456;19.016;2022-12-01T04:56:09;101063.00;;;-1.05;88.49
42297;BME280;28985;47.456;19.016;2022-12-01T04:58:36;101064.53;;;-0.98;88.33
42297;BME280;28985;47.456;19.016;2022-12-01T05:01:05;101070.63;;;-0.95;89.93
42297;BME280;28985;47.456;19.016;2022-12-01T05:03:36;101067.00;;;-0.92;88.70
42297;BME280;28985;47.456;19.016;2022-12-01T05:06:09;101063.47;;;-0.91;87.88
42297;BME280;28985;47.456;19.016;2022-12-01T05:08:36;101063.47;;;-0.91;87.85
42297;BME280;28985;47.456;19.016;2022-12-01T05:11:04;101059.16;;;-0.93;87.91
42297;BME280;28985;47.456;19.016;2022-12-01T05:13:40;101068.22;;;-1.02;90.81
42297;BME280;28985;47.456;19.016;2022-12-01T05:16:13;101064.06;;;-1.11;91.39
42297;BME280;28985;47.456;19.016;2022-12-01T05:18:40;101061.44;;;-1.11;89.91
42297;BME280;28985;47.456;19.016;2022-12-01T05:21:08;101063.94;;;-1.06;89.21
42297;BME280;28985;47.456;19.016;2022-12-01T05:23:36;101065.66;;;-1.05;88.86
42297;BME280;28985;47.456;19.016;2022-12-01T05:26:07;101067.34;;;-1.03;88.45
42297;BME280;28985;47.456;19.016;2022-12-01T05:28:34;101060.28;;;-1.02;88.49
42297;BME280;28985;47.456;19.016;2022-12-01T05:31:01;101064.69;;;-1.03;88.86
42297;BME280;28985;47.456;19.016;2022-12-01T05:33:28;101048.84;;;-1.03;88.32
42297;BME280;28985;47.456;19.016;2022-12-01T05:35:55;101049.72;;;-1.02;87.76
42297;BME280;28985;47.456;19.016;2022-12-01T05:38:22;101055.03;;;-1.04;87.90
42297;BME280;28985;47.456;19.016;2022-12-01T05:40:50;101060.31;;;-1.04;87.39
42297;BME280;28985;47.456;19.016;2022-12-01T05:43:21;101061.44;;;-1.11;89.82
42297;BME280;28985;47.456;19.016;2022-12-01T05:45:55;101067.84;;;-1.20;91.63
42297;BME280;28985;47.456;19.016;2022-12-01T05:48:22;101068.88;;;-1.26;92.14
42297;BME280;28985;47.456;19.016;2022-12-01T05:50:49;101064.69;;;-1.33;92.34
42297;BME280;28985;47.456;19.016;2022-12-01T05:53:16;101071.06;;;-1.40;92.56
42297;BME280;28985;47.456;19.016;2022-12-01T05:55:43;101070.28;;;-1.44;92.79
42297;BME280;28985;47.456;19.016;2022-12-01T05:58:10;101071.13;;;-1.43;91.85
42297;BME280;28985;47.456;19.016;2022-12-01T06:00:37;101076.34;;;-1.40;91.80
42297;BME280;28985;47.456;19.016;2022-12-01T06:03:11;101078.13;;;-1.42;92.34
42297;BME280;28985;47.456;19.016;2022-12-01T06:05:38;101079.91;;;-1.41;90.74
42297;BME280;28985;47.456;19.016;2022-12-01T06:08:05;101078.06;;;-1.39;91.10
42297;BME280;28985;47.456;19.016;2022-12-01T06:10:32;101090.47;;;-1.41;93.21
42297;BME280;28985;47.456;19.016;2022-12-01T06:12:59;101088.69;;;-1.42;93.59
42297;BME280;28985;47.456;19.016;2022-12-01T06:15:25;101090.50;;;-1.43;93.24
42297;BME280;28985;47.456;19.016;2022-12-01T06:17:52;101101.06;;;-1.43;93.05
42297;BME280;28985;47.456;19.016;2022-12-01T06:20:19;101100.22;;;-1.45;93.47
42297;BME280;28985;47.456;19.016;2022-12-01T06:22:45;101098.56;;;-1.47;93.34
42297;BME280;28985;47.456;19.016;2022-12-01T06:25:12;101104.69;;;-1.47;93.16
42297;BME280;28985;47.456;19.016;2022-12-01T06:27:38;101103.00;;;-1.50;92.85
42297;BME280;28985;47.456;19.016;2022-12-01T06:30:06;101097.72;;;-1.50;93.97
42297;BME280;28985;47.456;19.016;2022-12-01T06:32:32;101104.66;;;-1.45;93.09
42297;BME280;28985;47.456;19.016;2022-12-01T06:34:59;101103.03;;;-1.51;93.75
42297;BME280;28985;47.456;19.016;2022-12-01T06:37:26;101102.19;;;-1.52;94.53
42297;BME280;28985;47.456;19.016;2022-12-01T06:39:53;101100.38;;;-1.51;93.41
42297;BME280;28985;47.456;19.016;2022-12-01T06:42:20;101095.16;;;-1.53;94.73
42297;BME280;28985;47.456;19.016;2022-12-01T06:44:46;101096.06;;;-1.54;93.93
42297;BME280;28985;47.456;19.016;2022-12-01T06:47:13;101086.47;;;-1.56;94.79
42297;BME280;28985;47.456;19.016;2022-12-01T06:49:41;101091.81;;;-1.59;94.57
42297;BME280;28985;47.456;19.016;2022-12-01T06:52:08;101087.34;;;-1.57;95.08
42297;BME280;28985;47.456;19.016;2022-12-01T06:54:35;101090.88;;;-1.57;94.20
42297;BME280;28985;47.456;19.016;2022-12-01T06:57:03;101095.25;;;-1.56;94.41
42297;BME280;28985;47.456;19.016;2022-12-01T06:59:30;101098.84;;;-1.60;94.52
42297;BME280;28985;47.456;19.016;2022-12-01T07:01:57;101096.47;;;-1.69;95.16
42297;BME280;28985;47.456;19.016;2022-12-01T07:04:24;101097.25;;;-1.66;95.73
42297;BME280;28985;47.456;19.016;2022-12-01T07:06:50;101093.72;;;-1.65;96.30
42297;BME280;28985;47.456;19.016;2022-12-01T07:09:17;101104.06;;;-1.57;95.73
42297;BME280;28985;47.456;19.016;2022-12-01T07:11:44;101105.81;;;-1.56;96.40
42297;BME280;28985;47.456;19.016;2022-12-01T07:14:19;101104.69;;;-1.47;95.81
42297;BME280;28985;47.456;19.016;2022-12-01T07:16:47;101100.16;;;-1.42;96.21
42297;BME280;28985;47.456;19.016;2022-12-01T07:19:14;101107.09;;;-1.38;96.38
42297;BME280;28985;47.456;19.016;2022-12-01T07:21:40;101105.22;;;-1.34;97.12
42297;BME280;28985;47.456;19.016;2022-12-01T07:24:07;101105.13;;;-1.31;97.37
42297;BME280;28985;47.456;19.016;2022-12-01T07:26:33;101103.19;;;-1.24;97.73
42297;BME280;28985;47.456;19.016;2022-12-01T07:29:00;101104.72;;;-1.17;97.60
42297;BME280;28985;47.456;19.016;2022-12-01T07:31:26;101103.56;;;-1.06;97.72
42297;BME280;28985;47.456;19.016;2022-12-01T07:33:53;101103.34;;;-0.99;97.78
42297;BME280;28985;47.456;19.016;2022-12-01T07:36:20;101098.66;;;-0.89;97.75
42297;BME280;28985;47.456;19.016;2022-12-01T07:38:46;101108.88;;;-0.78;97.90
42297;BME280;28985;47.456;19.016;2022-12-01T07:41:15;101095.38;;;-0.67;97.49
42297;BME280;28985;47.456;19.016;2022-12-01T07:43:42;101099.22;;;-0.50;97.92
42297;BME280;28985;47.456;19.016;2022-12-01T07:46:11;101100.44;;;-0.32;97.58
42297;BME280;28985;47.456;19.016;2022-12-01T07:48:45;101093.78;;;-0.17;96.98
42297;BME280;28985;47.456;19.016;2022-12-01T07:51:13;101093.53;;;-0.09;95.48
42297;BME280;28985;47.456;19.016;2022-12-01T07:53:43;101092.25;;;0.03;94.89
42297;BME280;28985;47.456;19.016;2022-12-01T07:56:10;101095.13;;;0.22;95.30
42297;BME280;28985;47.456;19.016;2022-12-01T07:58:37;101095.63;;;0.33;94.13
42297;BME280;28985;47.456;19.016;2022-12-01T08:01:08;101109.28;;;0.48;93.29
42297;BME280;28985;47.456;19.016;2022-12-01T08:03:36;101101.72;;;0.61;92.59
42297;BME280;28985;47.456;19.016;2022-12-01T08:06:04;101101.97;;;0.78;92.93
42297;BME280;28985;47.456;19.016;2022-12-01T08:08:32;101100.25;;;1.01;92.09
42297;BME280;28985;47.456;19.016;2022-12-01T08:11:02;101101.38;;;1.19;90.57
42297;BME280;28985;47.456;19.016;2022-12-01T08:13:29;101105.03;;;1.39;89.21
42297;BME280;28985;47.456;19.016;2022-12-01T08:15:56;101107.28;;;1.72;89.58
42297;BME280;28985;47.456;19.016;2022-12-01T08:18:23;101104.66;;;1.93;85.26
42297;BME280;28985;47.456;19.016;2022-12-01T08:20:50;101094.72;;;2.19;83.57
42297;BME280;28985;47.456;19.016;2022-12-01T08:23:17;101096.91;;;2.51;81.39
42297;BME280;28985;47.456;19.016;2022-12-01T08:25:43;101094.34;;;2.68;79.47
42297;BME280;28985;47.456;19.016;2022-12-01T08:28:10;101096.38;;;3.03;78.45
42297;BME280;28985;47.456;19.016;2022-12-01T08:30:36;101085.22;;;3.33;77.07
42297;BME280;28985;47.456;19.016;2022-12-01T08:33:03;101091.94;;;3.60;74.81
42297;BME280;28985;47.456;19.016;2022-12-01T08:35:29;101092.78;;;3.97;75.58
42297;BME280;28985;47.456;19.016;2022-12-01T08:37:56;101095.13;;;4.56;78.23
42297;BME280;28985;47.456;19.016;2022-12-01T08:40:22;101094.13;;;5.09;75.14
42297;BME280;28985;47.456;19.016;2022-12-01T08:42:51;101093.72;;;5.33;69.13
42297;BME280;28985;47.456;19.016;2022-12-01T08:45:18;101094.31;;;5.54;67.66
42297;BME280;28985;47.456;19.016;2022-12-01T08:47:45;101100.63;;;6.16;68.85
42297;BME280;28985;47.456;19.016;2022-12-01T08:50:12;101096.34;;;6.28;64.89
42297;BME280;28985;47.456;19.016;2022-12-01T08:52:39;101085.81;;;6.84;66.59
42297;BME280;28985;47.456;19.016;2022-12-01T08:55:06;101083.69;;;7.19;64.99
42297;BME280;28985;47.456;19.016;2022-12-01T08:57:33;101074.13;;;7.84;64.70
42297;BME280;28985;47.456;19.016;2022-12-01T09:00:00;101083.75;;;8.27;64.26
42297;BME280;28985;47.456;19.016;2022-12-01T09:02:26;101081.53;;;8.86;63.32
42297;BME280;28985;47.456;19.016;2022-12-01T09:04:54;101084.50;;;9.20;59.50
42297;BME280;28985;47.456;19.016;2022-12-01T09:07:21;101078.84;;;9.12;53.92
42297;BME280;28985;47.456;19.016;2022-12-01T09:09:52;101075.19;;;9.00;57.32
42297;BME280;28985;47.456;19.016;2022-12-01T09:12:18;101079.78;;;9.61;60.39
42297;BME280;28985;47.456;19.016;2022-12-01T09:14:45;101081.97;;;9.92;54.70
42297;BME280;28985;47.456;19.016;2022-12-01T09:17:15;101072.66;;;9.85;51.33
42297;BME280;28985;47.456;19.016;2022-12-01T09:19:42;101072.09;;;9.92;50.88
42297;BME280;28985;47.456;19.016;2022-12-01T09:22:10;101067.94;;;10.36;51.33
42297;BME280;28985;47.456;19.016;2022-12-01T09:24:37;101059.69;;;11.07;57.10
42297;BME280;28985;47.456;19.016;2022-12-01T09:27:03;101063.88;;;11.11;48.45
42297;BME280;28985;47.456;19.016;2022-12-01T09:29:31;101054.38;;;11.40;49.68
42297;BME280;28985;47.456;19.016;2022-12-01T09:31:58;101046.25;;;11.51;49.95
42297;BME280;28985;47.456;19.016;2022-12-01T09:34:27;101048.09;;;11.51;46.45
42297;BME280;28985;47.456;19.016;2022-12-01T09:36:55;101051.97;;;11.58;47.01
42297;BME280;28985;47.456;19.016;2022-12-01T09:39:23;101046.94;;;11.65;45.99
42297;BME280;28985;47.456;19.016;2022-12-01T09:42:00;101049.25;;;11.69;45.53
42297;BME280;28985;47.456;19.016;2022-12-01T09:44:41;101057.09;;;11.73;44.67
42297;BME280;28985;47.456;19.016;2022-12-01T09:47:28;101048.63;;;11.99;44.43
42297;BME280;28985;47.456;19.016;2022-12-01T09:52:39;101045.91;;;11.77;43.87
42297;BME280;28985;47.456;19.016;2022-12-01T09:55:16;101040.94;;;11.61;44.12
42297;BME280;28985;47.456;19.016;2022-12-01T09:57:46;101044.34;;;11.63;43.20
42297;BME280;28985;47.456;19.016;2022-12-01T10:00:25;101040.41;;;11.35;43.75
42297;BME280;28985;47.456;19.016;2022-12-01T10:02:58;101034.91;;;11.25;43.91
42297;BME280;28985;47.456;19.016;2022-12-01T10:05:33;101035.31;;;11.09;44.52
42297;BME280;28985;47.456;19.016;2022-12-01T10:08:04;101046.00;;;10.87;45.01
42297;BME280;28985;47.456;19.016;2022-12-01T10:10:39;101044.50;;;10.60;44.60
42297;BME280;28985;47.456;19.016;2022-12-01T10:26:06;101020.16;;;10.62;46.04
42297;BME280;28985;47.456;19.016;2022-12-01T10:29:00;101022.13;;;11.38;46.40
42297;BME280;28985;47.456;19.016;2022-12-01T10:31:42;101021.09;;;12.16;45.48
42297;BME280;28985;47.456;19.016;2022-12-01T10:34:23;101007.88;;;12.75;43.30
42297;BME280;28985;47.456;19.016;2022-12-01T10:36:50;100999.22;;;13.33;41.71
42297;BME280;28985;47.456;19.016;2022-12-01T10:39:29;101008.50;;;13.99;40.53
42297;BME280;28985;47.456;19.016;2022-12-01T10:42:04;101006.97;;;14.54;40.31
42297;BME280;28985;47.456;19.016;2022-12-01T10:44:33;101000.00;;;14.89;39.53
42297;BME280;28985;47.456;19.016;2022-12-01T10:47:01;100992.47;;;15.29;37.54
42297;BME280;28985;47.456;19.016;2022-12-01T10:49:38;100994.81;;;15.79;36.14
42297;BME280;28985;47.456;19.016;2022-12-01T10:52:06;100985.47;;;16.00;35.84
42297;BME280;28985;47.456;19.016;2022-12-01T10:54:37;100992.22;;;16.40;33.51
42297;BME280;28985;47.456;19.016;2022-12-01T10:57:05;100999.97;;;16.61;34.94
42297;BME280;28985;47.456;19.016;2022-12-01T10:59:51;100995.75;;;16.67;33.09
42297;BME280;28985;47.456;19.016;2022-12-01T11:02:21;100995.41;;;16.35;34.60
42297;BME280;28985;47.456;19.016;2022-12-01T11:04:52;101000.41;;;15.95;34.21
42297;BME280;28985;47.456;19.016;2022-12-01T11:07:44;100995.13;;;15.57;34.24
42297;BME280;28985;47.456;19.016;2022-12-01T11:13:53;100979.56;;;14.95;36.67
42297;BME280;28985;47.456;19.016;2022-12-01T11:15:57;100977.72;;;14.58;36.89
42297;BME280;28985;47.456;19.016;2022-12-01T11:21:25;100981.59;;;14.07;37.75
42297;BME280;28985;47.456;19.016;2022-12-01T11:23:54;100975.44;;;14.05;37.76
42297;BME280;28985;47.456;19.016;2022-12-01T11:26:32;100974.69;;;14.23;38.00
42297;BME280;28985;47.456;19.016;2022-12-01T11:29:05;100968.72;;;14.57;38.06
42297;BME280;28985;47.456;19.016;2022-12-01T11:31:46;100971.56;;;14.94;37.53
42297;BME280;28985;47.456;19.016;2022-12-01T11:34:20;100963.25;;;15.60;36.54
42297;BME280;28985;47.456;19.016;2022-12-01T11:36:50;100962.94;;;15.99;35.47
42297;BME280;28985;47.456;19.016;2022-12-01T11:39:37;100956.63;;;16.60;34.30
42297;BME280;28985;47.456;19.016;2022-12-01T11:44:48;100953.50;;;17.57;32.30
42297;BME280;28985;47.456;19.016;2022-12-01T11:47:26;100961.66;;;17.82;31.62
42297;BME280;28985;47.456;19.016;2022-12-01T11:50:01;100961.13;;;17.45;31.04
42297;BME280;28985;47.456;19.016;2022-12-01T11:52:32;100957.34;;;16.70;31.17
42297;BME280;28985;47.456;19.016;2022-12-01T11:57:40;100965.66;;;14.80;35.48
42297;BME280;28985;47.456;19.016;2022-12-01T12:00:15;100967.56;;;14.22;36.55
42297;BME280;28985;47.456;19.016;2022-12-01T12:02:55;100963.94;;;13.74;37.57
42297;BME280;28985;47.456;19.016;2022-12-01T12:11:35;100961.97;;;14.33;37.90
42297;BME280;28985;47.456;19.016;2022-12-01T12:14:09;100949.09;;;14.83;37.23
42297;BME280;28985;47.456;19.016;2022-12-01T12:30:57;100938.97;;;16.64;33.40
42297;BME280;28985;47.456;19.016;2022-12-01T12:36:20;100942.72;;;17.06;33.58
42297;BME280;28985;47.456;19.016;2022-12-01T12:39:06;100949.41;;;16.85;33.17
42297;BME280;28985;47.456;19.016;2022-12-01T12:41:44;100950.38;;;17.19;32.42
42297;BME280;28985;47.456;19.016;2022-12-01T12:50:22;100937.09;;;17.08;33.17
42297;BME280;28985;47.456;19.016;2022-12-01T12:52:55;100935.22;;;16.57;34.44
42297;BME280;28985;47.456;19.016;2022-12-01T12:55:53;100941.25;;;16.42;35.07
42297;BME280;28985;47.456;19.016;2022-12-01T12:58:29;100937.81;;;16.75;33.78
42297;BME280;28985;47.456;19.016;2022-12-01T13:01:03;100941.69;;;16.56;33.02
42297;BME280;28985;47.456;19.016;2022-12-01T13:06:13;100930.31;;;16.69;33.30
42297;BME280;28985;47.456;19.016;2022-12-01T13:09:16;100925.81;;;16.86;33.77
42297;BME280;28985;47.456;19.016;2022-12-01T13:11:56;100923.91;;;16.78;34.50
42297;BME280;28985;47.456;19.016;2022-12-01T13:14:28;100930.44;;;16.50;34.13
42297;BME280;28985;47.456;19.016;2022-12-01T13:19:50;100940.34;;;16.25;35.00
42297;BME280;28985;47.456;19.016;2022-12-01T13:22:20;100937.09;;;16.21;34.78
42297;BME280;28985;47.456;19.016;2022-12-01T13:24:50;100935.84;;;16.16;34.17
42297;BME280;28985;47.456;19.016;2022-12-01T13:27:18;100937.69;;;15.89;34.26
42297;BME280;28985;47.456;19.016;2022-12-01T13:29:49;100936.78;;;15.80;35.27
42297;BME280;28985;47.456;19.016;2022-12-01T13:34:56;100936.34;;;15.66;34.82
42297;BME280;28985;47.456;19.016;2022-12-01T13:37:30;100942.09;;;15.63;35.14
42297;BME280;28985;47.456;19.016;2022-12-01T13:40:08;100937.03;;;15.68;34.87
42297;BME280;28985;47.456;19.016;2022-12-01T13:42:36;100944.31;;;15.68;34.82
42297;BME280;28985;47.456;19.016;2022-12-01T13:45:18;100948.22;;;15.92;33.88
42297;BME280;28985;47.456;19.016;2022-12-01T13:58:45;100956.47;;;14.25;37.70
42297;BME280;28985;47.456;19.016;2022-12-01T14:06:36;100944.28;;;14.01;37.56
42297;BME280;28985;47.456;19.016;2022-12-01T14:09:12;100943.88;;;13.76;37.30
42297;BME280;28985;47.456;19.016;2022-12-01T14:12:00;100939.16;;;13.19;38.24
42297;BME280;28985;47.456;19.016;2022-12-01T14:14:34;100937.59;;;13.07;38.31
42297;BME280;28985;47.456;19.016;2022-12-01T14:17:02;100937.69;;;12.85;39.00
42297;BME280;28985;47.456;19.016;2022-12-01T14:19:43;100940.88;;;12.59;39.46
42297;BME280;28985;47.456;19.016;2022-12-01T14:25:00;100939.53;;;11.70;40.62
42297;BME280;28985;47.456;19.016;2022-12-01T14:27:40;100947.69;;;11.26;41.88
42297;BME280;28985;47.456;19.016;2022-12-01T14:36:03;100946.81;;;10.24;44.09
42297;BME280;28985;47.456;19.016;2022-12-01T14:38:31;100945.78;;;9.91;44.47
42297;BME280;28985;47.456;19.016;2022-12-01T14:40:58;100947.22;;;9.72;45.38
42297;BME280;28985;47.456;19.016;2022-12-01T14:43:25;100950.50;;;9.64;45.70
42297;BME280;28985;47.456;19.016;2022-12-01T14:46:18;100947.84;;;9.40;46.58
42297;BME280;28985;47.456;19.016;2022-12-01T14:48:46;100950.94;;;8.98;47.47
42297;BME280;28985;47.456;19.016;2022-12-01T14:51:26;100952.94;;;8.70;47.85
42297;BME280;28985;47.456;19.016;2022-12-01T14:53:54;100959.50;;;8.66;47.61
42297;BME280;28985;47.456;19.016;2022-12-01T14:56:23;100954.44;;;8.61;49.00
42297;BME280;28985;47.456;19.016;2022-12-01T14:58:54;100953.59;;;8.48;49.85
42297;BME280;28985;47.456;19.016;2022-12-01T15:01:21;100955.66;;;8.18;51.12